sensor_id;sensor_type;location;lat;lon;timestamp;P1;durP1;ratioP1;P2;durP2;ratioP2
12296;SDS011;6211;49.124;9.152;2022-08-05T00:01:29;2.38;;;2.17;;
12296;SDS011;6211;49.124;9.152;2022-08-05T00:03:56;1.90;;;1.80;;
12296;SDS011;6211;49.124;9.152;2022-08-05T00:06:23;2.35;;;2.15;;
12296;SDS011;6211;49.124;9.152;2022-08-05T00:08:50;2.03;;;1.90;;
12296;SDS011;6211;49.124;9.152;2022-08-05T00:11:17;4.43;;;2.50;;
12296;SDS011;6211;49.124;9.152;2022-08-05T00:13:44;2.40;;;2.20;;
12296;SDS011;6211;49.124;9.152;2022-08-05T00:16:13;2.22;;;2.03;;
12296;SDS011;6211;49.124;9.152;2022-08-05T00:18:42;4.03;;;2.25;;
12296;SDS011;6211;49.124;9.152;2022-08-05T00:21:09;1.85;;;1.73;;
12296;SDS011;6211;49.124;9.152;2022-08-05T00:23:37;4.47;;;2.10;;
12296;SDS011;6211;49.124;9.152;2022-08-05T00:26:04;1.83;;;1.73;;
12296;SDS011;6211;49.124;9.152;2022-08-05T00:28:31;3.05;;;1.60;;
12296;SDS011;6211;49.124;9.152;2022-08-05T00:30:58;1.95;;;1.75;;
12296;SDS011;6211;49.124;9.152;2022-08-05T00:33:27;2.30;;;2.10;;
12296;SDS011;6211;49.124;9.152;2022-08-05T00:35:54;1.75;;;1.65;;
12296;SDS011;6211;49.124;9.152;2022-08-05T00:38:21;2.28;;;1.90;;
12296;SDS011;6211;49.124;9.152;2022-08-05T00:40:49;1.80;;;1.70;;
12296;SDS011;6211;49.124;9.152;2022-08-05T00:43:16;2.28;;;1.73;;
12296;SDS011;6211;49.124;9.152;2022-08-05T00:45:43;1.95;;;1.77;;
12296;SDS011;6211;49.124;9.152;2022-08-05T00:48:12;2.38;;;1.60;;
12296;SDS011;6211;49.124;9.152;2022-08-05T00:50:41;2.30;;;1.60;;
12296;SDS011;6211;49.124;9.152;2022-08-05T00:53:09;3.40;;;1.67;;
12296;SDS011;6211;49.124;9.152;2022-08-05T00:55:36;1.50;;;1.40;;
12296;SDS011;6211;49.124;9.152;2022-08-05T00:58:03;1.60;;;1.50;;
12296;SDS011;6211;49.124;9.152;2022-08-05T01:00:30;3.30;;;1.45;;
12296;SDS011;6211;49.124;9.152;2022-08-05T01:02:58;1.50;;;1.40;;
12296;SDS011;6211;49.124;9.152;2022-08-05T01:05:25;2.03;;;1.60;;
12296;SDS011;6211;49.124;9.152;2022-08-05T01:07:54;2.05;;;1.35;;
12296;SDS011;6211;49.124;9.152;2022-08-05T01:10:21;1.50;;;1.40;;
12296;SDS011;6211;49.124;9.152;2022-08-05T01:12:51;1.58;;;1.48;;
12296;SDS011;6211;49.124;9.152;2022-08-05T01:15:20;1.85;;;1.60;;
12296;SDS011;6211;49.124;9.152;2022-08-05T01:17:48;1.73;;;1.52;;
12296;SDS011;6211;49.124;9.152;2022-08-05T01:20:18;3.53;;;1.52;;
12296;SDS011;6211;49.124;9.152;2022-08-05T01:23:01;3.17;;;1.90;;
12296;SDS011;6211;49.124;9.152;2022-08-05T01:25:38;1.63;;;1.52;;
12296;SDS011;6211;49.124;9.152;2022-08-05T01:28:15;2.30;;;1.50;;
12296;SDS011;6211;49.124;9.152;2022-08-05T01:30:45;1.52;;;1.40;;
12296;SDS011;6211;49.124;9.152;2022-08-05T01:33:13;1.52;;;1.10;;
12296;SDS011;6211;49.124;9.152;2022-08-05T01:35:41;2.40;;;1.45;;
12296;SDS011;6211;49.124;9.152;2022-08-05T01:38:09;4.82;;;1.83;;
12296;SDS011;6211;49.124;9.152;2022-08-05T01:40:36;2.67;;;1.38;;
12296;SDS011;6211;49.124;9.152;2022-08-05T01:43:04;2.25;;;1.73;;
12296;SDS011;6211;49.124;9.152;2022-08-05T01:45:33;2.97;;;1.70;;
12296;SDS011;6211;49.124;9.152;2022-08-05T01:48:01;2.38;;;1.75;;
12296;SDS011;6211;49.124;9.152;2022-08-05T01:50:29;3.95;;;1.38;;
12296;SDS011;6211;49.124;9.152;2022-08-05T01:52:57;2.72;;;1.70;;
12296;SDS011;6211;49.124;9.152;2022-08-05T01:55:26;1.67;;;1.55;;
12296;SDS011;6211;49.124;9.152;2022-08-05T01:57:54;1.58;;;1.48;;
12296;SDS011;6211;49.124;9.152;2022-08-05T02:00:22;1.40;;;1.30;;
12296;SDS011;6211;49.124;9.152;2022-08-05T02:02:52;2.17;;;1.70;;
12296;SDS011;6211;49.124;9.152;2022-08-05T02:05:22;1.83;;;1.73;;
12296;SDS011;6211;49.124;9.152;2022-08-05T02:07:50;1.50;;;1.40;;
12296;SDS011;6211;49.124;9.152;2022-08-05T02:10:18;2.13;;;1.40;;
12296;SDS011;6211;49.124;9.152;2022-08-05T02:12:45;1.60;;;1.50;;
12296;SDS011;6211;49.124;9.152;2022-08-05T02:15:19;6.07;;;1.70;;
12296;SDS011;6211;49.124;9.152;2022-08-05T02:17:48;2.88;;;1.48;;
12296;SDS011;6211;49.124;9.152;2022-08-05T02:20:19;1.58;;;1.40;;
12296;SDS011;6211;49.124;9.152;2022-08-05T02:22:49;4.00;;;1.98;;
12296;SDS011;6211;49.124;9.152;2022-08-05T02:25:21;3.05;;;1.75;;
12296;SDS011;6211;49.124;9.152;2022-08-05T02:27:50;1.42;;;1.33;;
12296;SDS011;6211;49.124;9.152;2022-08-05T02:30:18;2.20;;;1.85;;
12296;SDS011;6211;49.124;9.152;2022-08-05T02:32:46;1.50;;;1.40;;
12296;SDS011;6211;49.124;9.152;2022-08-05T02:35:16;1.80;;;1.63;;
12296;SDS011;6211;49.124;9.152;2022-08-05T02:37:45;2.20;;;1.48;;
12296;SDS011;6211;49.124;9.152;2022-08-05T02:40:13;2.78;;;1.73;;
12296;SDS011;6211;49.124;9.152;2022-08-05T02:42:41;3.35;;;1.50;;
12296;SDS011;6211;49.124;9.152;2022-08-05T02:45:08;3.63;;;1.67;;
12296;SDS011;6211;49.124;9.152;2022-08-05T02:47:36;1.58;;;1.48;;
12296;SDS011;6211;49.124;9.152;2022-08-05T02:50:04;1.80;;;1.70;;
12296;SDS011;6211;49.124;9.152;2022-08-05T02:52:32;3.58;;;1.90;;
12296;SDS011;6211;49.124;9.152;2022-08-05T02:55:01;1.70;;;1.60;;
12296;SDS011;6211;49.124;9.152;2022-08-05T02:57:28;2.35;;;1.50;;
12296;SDS011;6211;49.124;9.152;2022-08-05T02:59:56;3.17;;;2.05;;
12296;SDS011;6211;49.124;9.152;2022-08-05T03:02:24;2.47;;;1.80;;
12296;SDS011;6211;49.124;9.152;2022-08-05T03:04:54;4.32;;;1.83;;
12296;SDS011;6211;49.124;9.152;2022-08-05T03:07:23;1.70;;;1.60;;
12296;SDS011;6211;49.124;9.152;2022-08-05T03:09:51;1.73;;;1.63;;
12296;SDS011;6211;49.124;9.152;2022-08-05T03:12:32;3.67;;;2.00;;
12296;SDS011;6211;49.124;9.152;2022-08-05T03:14:59;2.17;;;2.00;;
12296;SDS011;6211;49.124;9.152;2022-08-05T03:17:27;2.10;;;1.80;;
12296;SDS011;6211;49.124;9.152;2022-08-05T03:19:54;1.55;;;1.45;;
12296;SDS011;6211;49.124;9.152;2022-08-05T03:22:21;2.28;;;1.80;;
12296;SDS011;6211;49.124;9.152;2022-08-05T03:24:48;4.55;;;2.08;;
12296;SDS011;6211;49.124;9.152;2022-08-05T03:27:16;1.83;;;1.73;;
12296;SDS011;6211;49.124;9.152;2022-08-05T03:29:44;2.13;;;1.90;;
12296;SDS011;6211;49.124;9.152;2022-08-05T03:32:12;3.50;;;1.65;;
12296;SDS011;6211;49.124;9.152;2022-08-05T03:34:40;1.80;;;1.63;;
12296;SDS011;6211;49.124;9.152;2022-08-05T03:37:07;5.43;;;2.25;;
12296;SDS011;6211;49.124;9.152;2022-08-05T03:39:34;2.15;;;1.80;;
12296;SDS011;6211;49.124;9.152;2022-08-05T03:42:02;1.75;;;1.65;;
12296;SDS011;6211;49.124;9.152;2022-08-05T03:44:29;1.58;;;1.48;;
12296;SDS011;6211;49.124;9.152;2022-08-05T03:46:58;1.70;;;1.60;;
12296;SDS011;6211;49.124;9.152;2022-08-05T03:49:25;6.03;;;2.38;;
12296;SDS011;6211;49.124;9.152;2022-08-05T03:51:53;2.15;;;1.98;;
12296;SDS011;6211;49.124;9.152;2022-08-05T03:54:30;4.45;;;1.40;;
12296;SDS011;6211;49.124;9.152;2022-08-05T03:56:59;3.25;;;2.25;;
12296;SDS011;6211;49.124;9.152;2022-08-05T03:59:30;2.13;;;1.80;;
12296;SDS011;6211;49.124;9.152;2022-08-05T04:02:00;2.03;;;1.90;;
12296;SDS011;6211;49.124;9.152;2022-08-05T04:04:28;3.35;;;2.17;;
12296;SDS011;6211;49.124;9.152;2022-08-05T04:06:57;1.80;;;1.70;;
12296;SDS011;6211;49.124;9.152;2022-08-05T04:09:24;2.45;;;2.20;;
12296;SDS011;6211;49.124;9.152;2022-08-05T04:11:52;2.40;;;2.20;;
12296;SDS011;6211;49.124;9.152;2022-08-05T04:14:20;3.33;;;2.15;;
12296;SDS011;6211;49.124;9.152;2022-08-05T04:19:15;2.28;;;1.95;;
12296;SDS011;6211;49.124;9.152;2022-08-05T04:21:42;3.08;;;2.00;;
12296;SDS011;6211;49.124;9.152;2022-08-05T04:24:09;2.85;;;1.67;;
12296;SDS011;6211;49.124;9.152;2022-08-05T04:26:37;1.75;;;1.65;;
12296;SDS011;6211;49.124;9.152;2022-08-05T04:29:04;2.47;;;2.15;;
12296;SDS011;6211;49.124;9.152;2022-08-05T04:31:31;2.08;;;1.55;;
12296;SDS011;6211;49.124;9.152;2022-08-05T04:33:58;2.03;;;1.55;;
12296;SDS011;6211;49.124;9.152;2022-08-05T04:36:26;1.63;;;1.52;;
12296;SDS011;6211;49.124;9.152;2022-08-05T04:38:54;1.67;;;1.58;;
12296;SDS011;6211;49.124;9.152;2022-08-05T04:41:21;1.85;;;1.73;;
12296;SDS011;6211;49.124;9.152;2022-08-05T04:43:48;2.75;;;2.25;;
12296;SDS011;6211;49.124;9.152;2022-08-05T04:46:15;3.65;;;2.13;;
12296;SDS011;6211;49.124;9.152;2022-08-05T04:48:43;2.45;;;2.22;;
12296;SDS011;6211;49.124;9.152;2022-08-05T04:51:10;3.60;;;2.50;;
12296;SDS011;6211;49.124;9.152;2022-08-05T04:53:38;2.55;;;2.35;;
12296;SDS011;6211;49.124;9.152;2022-08-05T04:56:05;3.05;;;2.63;;
12296;SDS011;6211;49.124;9.152;2022-08-05T04:58:33;3.20;;;2.45;;
12296;SDS011;6211;49.124;9.152;2022-08-05T05:01:00;5.70;;;2.50;;
12296;SDS011;6211;49.124;9.152;2022-08-05T05:03:27;2.65;;;2.45;;
12296;SDS011;6211;49.124;9.152;2022-08-05T05:05:54;5.35;;;2.47;;
12296;SDS011;6211;49.124;9.152;2022-08-05T05:08:21;2.60;;;2.40;;
12296;SDS011;6211;49.124;9.152;2022-08-05T05:10:50;2.65;;;2.40;;
12296;SDS011;6211;49.124;9.152;2022-08-05T05:13:17;4.75;;;2.92;;
12296;SDS011;6211;49.124;9.152;2022-08-05T05:15:44;2.80;;;2.60;;
12296;SDS011;6211;49.124;9.152;2022-08-05T05:18:11;3.70;;;2.80;;
12296;SDS011;6211;49.124;9.152;2022-08-05T05:20:41;2.58;;;2.38;;
12296;SDS011;6211;49.124;9.152;2022-08-05T05:23:08;2.88;;;2.45;;
12296;SDS011;6211;49.124;9.152;2022-08-05T05:25:35;4.32;;;2.40;;
12296;SDS011;6211;49.124;9.152;2022-08-05T05:28:03;2.95;;;2.10;;
12296;SDS011;6211;49.124;9.152;2022-08-05T05:30:31;2.38;;;2.15;;
12296;SDS011;6211;49.124;9.152;2022-08-05T05:32:59;2.85;;;2.53;;
12296;SDS011;6211;49.124;9.152;2022-08-05T05:35:26;2.38;;;2.17;;
12296;SDS011;6211;49.124;9.152;2022-08-05T05:37:54;2.10;;;1.90;;
12296;SDS011;6211;49.124;9.152;2022-08-05T05:40:22;2.03;;;1.90;;
12296;SDS011;6211;49.124;9.152;2022-08-05T05:42:49;2.85;;;2.20;;
12296;SDS011;6211;49.124;9.152;2022-08-05T05:45:18;2.00;;;1.80;;
12296;SDS011;6211;49.124;9.152;2022-08-05T05:47:46;3.17;;;1.80;;
12296;SDS011;6211;49.124;9.152;2022-08-05T05:50:15;2.15;;;1.98;;
12296;SDS011;6211;49.124;9.152;2022-08-05T05:52:42;2.42;;;1.80;;
12296;SDS011;6211;49.124;9.152;2022-08-05T05:55:10;1.98;;;1.70;;
12296;SDS011;6211;49.124;9.152;2022-08-05T05:57:38;2.20;;;2.00;;
12296;SDS011;6211;49.124;9.152;2022-08-05T06:00:06;1.80;;;1.70;;
12296;SDS011;6211;49.124;9.152;2022-08-05T06:02:35;4.28;;;2.08;;
12296;SDS011;6211;49.124;9.152;2022-08-05T06:05:02;1.85;;;1.45;;
12296;SDS011;6211;49.124;9.152;2022-08-05T06:07:29;3.67;;;2.00;;
12296;SDS011;6211;49.124;9.152;2022-08-05T06:09:56;2.20;;;1.90;;
12296;SDS011;6211;49.124;9.152;2022-08-05T06:12:24;1.50;;;1.40;;
12296;SDS011;6211;49.124;9.152;2022-08-05T06:14:51;2.30;;;2.10;;
12296;SDS011;6211;49.124;9.152;2022-08-05T06:17:18;2.97;;;2.15;;
12296;SDS011;6211;49.124;9.152;2022-08-05T06:19:46;2.13;;;1.83;;
12296;SDS011;6211;49.124;9.152;2022-08-05T06:22:20;2.28;;;1.60;;
12296;SDS011;6211;49.124;9.152;2022-08-05T06:24:48;1.98;;;1.73;;
12296;SDS011;6211;49.124;9.152;2022-08-05T06:27:15;2.03;;;1.88;;
12296;SDS011;6211;49.124;9.152;2022-08-05T06:29:42;2.00;;;1.80;;
12296;SDS011;6211;49.124;9.152;2022-08-05T06:32:09;4.30;;;1.58;;
12296;SDS011;6211;49.124;9.152;2022-08-05T06:34:36;2.83;;;1.95;;
12296;SDS011;6211;49.124;9.152;2022-08-05T06:37:05;2.10;;;1.40;;
12296;SDS011;6211;49.124;9.152;2022-08-05T06:39:33;1.60;;;1.50;;
12296;SDS011;6211;49.124;9.152;2022-08-05T06:42:00;1.50;;;1.40;;
12296;SDS011;6211;49.124;9.152;2022-08-05T06:44:27;1.83;;;1.45;;
12296;SDS011;6211;49.124;9.152;2022-08-05T06:46:55;1.63;;;1.52;;
12296;SDS011;6211;49.124;9.152;2022-08-05T06:49:22;1.48;;;1.38;;
12296;SDS011;6211;49.124;9.152;2022-08-05T06:51:50;1.65;;;1.55;;
12296;SDS011;6211;49.124;9.152;2022-08-05T06:54:19;2.13;;;1.58;;
12296;SDS011;6211;49.124;9.152;2022-08-05T06:56:46;1.50;;;1.40;;
12296;SDS011;6211;49.124;9.152;2022-08-05T06:59:13;2.75;;;1.80;;
12296;SDS011;6211;49.124;9.152;2022-08-05T07:01:40;1.80;;;1.50;;
12296;SDS011;6211;49.124;9.152;2022-08-05T07:04:07;1.70;;;1.58;;
12296;SDS011;6211;49.124;9.152;2022-08-05T07:06:34;2.72;;;1.63;;
12296;SDS011;6211;49.124;9.152;2022-08-05T07:09:01;1.52;;;1.42;;
12296;SDS011;6211;49.124;9.152;2022-08-05T07:11:29;1.77;;;1.67;;
12296;SDS011;6211;49.124;9.152;2022-08-05T07:13:57;1.88;;;1.50;;
12296;SDS011;6211;49.124;9.152;2022-08-05T07:16:41;1.73;;;1.42;;
12296;SDS011;6211;49.124;9.152;2022-08-05T07:19:15;2.40;;;1.60;;
12296;SDS011;6211;49.124;9.152;2022-08-05T07:21:42;2.55;;;1.60;;
12296;SDS011;6211;49.124;9.152;2022-08-05T07:24:09;3.30;;;1.85;;
12296;SDS011;6211;49.124;9.152;2022-08-05T07:26:38;3.67;;;1.90;;
12296;SDS011;6211;49.124;9.152;2022-08-05T07:29:06;2.10;;;1.90;;
12296;SDS011;6211;49.124;9.152;2022-08-05T07:31:33;2.00;;;1.85;;
12296;SDS011;6211;49.124;9.152;2022-08-05T07:34:00;1.90;;;1.73;;
12296;SDS011;6211;49.124;9.152;2022-08-05T07:36:27;2.03;;;1.70;;
12296;SDS011;6211;49.124;9.152;2022-08-05T07:38:57;2.53;;;1.98;;
12296;SDS011;6211;49.124;9.152;2022-08-05T07:41:25;2.30;;;1.77;;
12296;SDS011;6211;49.124;9.152;2022-08-05T07:43:54;2.05;;;1.80;;
12296;SDS011;6211;49.124;9.152;2022-08-05T07:46:21;2.50;;;1.67;;
12296;SDS011;6211;49.124;9.152;2022-08-05T07:48:48;3.63;;;2.08;;
12296;SDS011;6211;49.124;9.152;2022-08-05T07:51:15;3.88;;;1.77;;
12296;SDS011;6211;49.124;9.152;2022-08-05T07:53:43;3.08;;;1.67;;
12296;SDS011;6211;49.124;9.152;2022-08-05T07:56:10;2.40;;;1.63;;
12296;SDS011;6211;49.124;9.152;2022-08-05T07:58:37;3.50;;;1.73;;
12296;SDS011;6211;49.124;9.152;2022-08-05T08:01:06;1.98;;;1.73;;
12296;SDS011;6211;49.124;9.152;2022-08-05T08:03:33;1.70;;;1.60;;
12296;SDS011;6211;49.124;9.152;2022-08-05T08:06:00;2.05;;;1.73;;
12296;SDS011;6211;49.124;9.152;2022-08-05T08:08:27;1.65;;;1.55;;
12296;SDS011;6211;49.124;9.152;2022-08-05T08:10:54;1.30;;;1.20;;
12296;SDS011;6211;49.124;9.152;2022-08-05T08:13:22;2.17;;;1.98;;
12296;SDS011;6211;49.124;9.152;2022-08-05T08:15:49;1.92;;;1.77;;
12296;SDS011;6211;49.124;9.152;2022-08-05T08:18:17;2.63;;;1.75;;
12296;SDS011;6211;49.124;9.152;2022-08-05T08:20:44;2.97;;;2.10;;
12296;SDS011;6211;49.124;9.152;2022-08-05T08:23:13;1.92;;;1.67;;
12296;SDS011;6211;49.124;9.152;2022-08-05T08:25:42;1.98;;;1.88;;
12296;SDS011;6211;49.124;9.152;2022-08-05T08:28:09;3.45;;;2.40;;
12296;SDS011;6211;49.124;9.152;2022-08-05T08:30:36;2.10;;;2.00;;
12296;SDS011;6211;49.124;9.152;2022-08-05T08:33:06;4.00;;;2.17;;
12296;SDS011;6211;49.124;9.152;2022-08-05T08:35:34;2.33;;;2.13;;
12296;SDS011;6211;49.124;9.152;2022-08-05T08:38:01;2.78;;;2.17;;
12296;SDS011;6211;49.124;9.152;2022-08-05T08:40:30;2.55;;;2.35;;
12296;SDS011;6211;49.124;9.152;2022-08-05T08:42:58;1.70;;;1.50;;
12296;SDS011;6211;49.124;9.152;2022-08-05T08:45:26;2.42;;;2.17;;
12296;SDS011;6211;49.124;9.152;2022-08-05T08:47:53;1.88;;;1.70;;
12296;SDS011;6211;49.124;9.152;2022-08-05T08:50:21;3.00;;;1.77;;
12296;SDS011;6211;49.124;9.152;2022-08-05T08:52:51;2.10;;;1.90;;
12296;SDS011;6211;49.124;9.152;2022-08-05T08:55:19;2.15;;;1.95;;
12296;SDS011;6211;49.124;9.152;2022-08-05T08:57:46;2.22;;;1.55;;
12296;SDS011;6211;49.124;9.152;2022-08-05T09:00:14;2.10;;;1.52;;
12296;SDS011;6211;49.124;9.152;2022-08-05T09:02:41;3.22;;;1.90;;
12296;SDS011;6211;49.124;9.152;2022-08-05T09:05:10;2.55;;;1.50;;
12296;SDS011;6211;49.124;9.152;2022-08-05T09:07:37;1.92;;;1.70;;
12296;SDS011;6211;49.124;9.152;2022-08-05T09:10:06;1.83;;;1.73;;
12296;SDS011;6211;49.124;9.152;2022-08-05T09:12:33;2.53;;;1.75;;
12296;SDS011;6211;49.124;9.152;2022-08-05T09:15:01;2.08;;;1.88;;
12296;SDS011;6211;49.124;9.152;2022-08-05T09:17:28;2.47;;;1.70;;
12296;SDS011;6211;49.124;9.152;2022-08-05T09:19:56;1.70;;;1.60;;
12296;SDS011;6211;49.124;9.152;2022-08-05T09:22:23;3.22;;;2.25;;
12296;SDS011;6211;49.124;9.152;2022-08-05T09:24:56;1.85;;;1.60;;
12296;SDS011;6211;49.124;9.152;2022-08-05T09:27:32;2.70;;;1.83;;
12296;SDS011;6211;49.124;9.152;2022-08-05T09:30:01;2.90;;;1.70;;
12296;SDS011;6211;49.124;9.152;2022-08-05T09:32:35;1.50;;;1.40;;
12296;SDS011;6211;49.124;9.152;2022-08-05T09:35:08;1.80;;;1.52;;
12296;SDS011;6211;49.124;9.152;2022-08-05T09:37:36;1.58;;;1.48;;
12296;SDS011;6211;49.124;9.152;2022-08-05T09:40:05;2.08;;;1.80;;
12296;SDS011;6211;49.124;9.152;2022-08-05T09:42:39;1.60;;;1.50;;
12296;SDS011;6211;49.124;9.152;2022-08-05T09:45:06;1.50;;;1.40;;
12296;SDS011;6211;49.124;9.152;2022-08-05T09:47:35;1.60;;;1.50;;
12296;SDS011;6211;49.124;9.152;2022-08-05T09:50:06;2.58;;;1.50;;
12296;SDS011;6211;49.124;9.152;2022-08-05T09:52:34;1.80;;;1.63;;
12296;SDS011;6211;49.124;9.152;2022-08-05T09:55:03;1.63;;;1.52;;
12296;SDS011;6211;49.124;9.152;2022-08-05T09:57:32;1.50;;;1.40;;
12296;SDS011;6211;49.124;9.152;2022-08-05T10:00:03;1.50;;;1.40;;
12296;SDS011;6211;49.124;9.152;2022-08-05T10:02:34;1.65;;;1.40;;
12296;SDS011;6211;49.124;9.152;2022-08-05T10:05:02;1.70;;;1.60;;
12296;SDS011;6211;49.124;9.152;2022-08-05T10:07:41;2.17;;;1.70;;
12296;SDS011;6211;49.124;9.152;2022-08-05T10:10:08;1.80;;;1.70;;
12296;SDS011;6211;49.124;9.152;2022-08-05T10:12:38;1.50;;;1.40;;
12296;SDS011;6211;49.124;9.152;2022-08-05T10:15:13;1.70;;;1.50;;
12296;SDS011;6211;49.124;9.152;2022-08-05T10:17:41;2.05;;;1.55;;
12296;SDS011;6211;49.124;9.152;2022-08-05T10:20:08;2.03;;;1.80;;
12296;SDS011;6211;49.124;9.152;2022-08-05T10:22:37;2.42;;;1.75;;
12296;SDS011;6211;49.124;9.152;2022-08-05T10:25:05;1.95;;;1.80;;
12296;SDS011;6211;49.124;9.152;2022-08-05T10:27:32;1.73;;;1.63;;
12296;SDS011;6211;49.124;9.152;2022-08-05T10:29:59;2.88;;;1.48;;
12296;SDS011;6211;49.124;9.152;2022-08-05T10:32:28;1.63;;;1.52;;
12296;SDS011;6211;49.124;9.152;2022-08-05T10:34:56;2.38;;;1.90;;
12296;SDS011;6211;49.124;9.152;2022-08-05T10:37:23;2.53;;;1.70;;
12296;SDS011;6211;49.124;9.152;2022-08-05T10:39:53;1.50;;;1.40;;
12296;SDS011;6211;49.124;9.152;2022-08-05T10:42:22;1.60;;;1.50;;
12296;SDS011;6211;49.124;9.152;2022-08-05T10:44:50;1.50;;;1.40;;
12296;SDS011;6211;49.124;9.152;2022-08-05T10:47:20;1.40;;;1.30;;
12296;SDS011;6211;49.124;9.152;2022-08-05T10:50:01;1.80;;;1.70;;
12296;SDS011;6211;49.124;9.152;2022-08-05T10:52:36;1.35;;;1.10;;
12296;SDS011;6211;49.124;9.152;2022-08-05T10:55:04;1.45;;;1.35;;
12296;SDS011;6211;49.124;9.152;2022-08-05T10:57:32;1.42;;;0.95;;
12296;SDS011;6211;49.124;9.152;2022-08-05T11:00:09;1.23;;;1.13;;
12296;SDS011;6211;49.124;9.152;2022-08-05T11:02:37;1.08;;;1.08;;
12296;SDS011;6211;49.124;9.152;2022-08-05T11:05:07;0.90;;;0.90;;
12296;SDS011;6211;49.124;9.152;2022-08-05T11:07:36;1.27;;;1.13;;
12296;SDS011;6211;49.124;9.152;2022-08-05T11:10:21;1.20;;;1.10;;
12296;SDS011;6211;49.124;9.152;2022-08-05T11:12:48;0.90;;;0.90;;
12296;SDS011;6211;49.124;9.152;2022-08-05T11:15:16;1.10;;;1.10;;
12296;SDS011;6211;49.124;9.152;2022-08-05T11:17:44;1.80;;;1.10;;
12296;SDS011;6211;49.124;9.152;2022-08-05T11:20:31;1.70;;;1.20;;
12296;SDS011;6211;49.124;9.152;2022-08-05T11:23:23;1.20;;;1.10;;
12296;SDS011;6211;49.124;9.152;2022-08-05T11:25:58;1.13;;;1.02;;
12296;SDS011;6211;49.124;9.152;2022-08-05T11:28:35;0.80;;;0.80;;
12296;SDS011;6211;49.124;9.152;2022-08-05T11:31:25;1.10;;;1.05;;
12296;SDS011;6211;49.124;9.152;2022-08-05T11:34:00;1.33;;;1.23;;
12296;SDS011;6211;49.124;9.152;2022-08-05T11:36:42;0.77;;;0.77;;
12296;SDS011;6211;49.124;9.152;2022-08-05T11:39:11;1.20;;;1.10;;
12296;SDS011;6211;49.124;9.152;2022-08-05T11:41:39;0.80;;;0.80;;
12296;SDS011;6211;49.124;9.152;2022-08-05T11:44:08;1.02;;;1.02;;
12296;SDS011;6211;49.124;9.152;2022-08-05T11:46:38;1.92;;;1.23;;
12296;SDS011;6211;49.124;9.152;2022-08-05T11:49:06;1.10;;;1.10;;
12296;SDS011;6211;49.124;9.152;2022-08-05T11:51:33;1.20;;;0.90;;
12296;SDS011;6211;49.124;9.152;2022-08-05T11:54:03;0.90;;;0.90;;
12296;SDS011;6211;49.124;9.152;2022-08-05T11:56:43;1.20;;;1.10;;
12296;SDS011;6211;49.124;9.152;2022-08-05T11:59:16;0.93;;;0.90;;
12296;SDS011;6211;49.124;9.152;2022-08-05T12:01:53;1.48;;;1.20;;
12296;SDS011;6211;49.124;9.152;2022-08-05T12:04:21;2.22;;;1.10;;
12296;SDS011;6211;49.124;9.152;2022-08-05T12:06:51;1.02;;;0.93;;
12296;SDS011;6211;49.124;9.152;2022-08-05T12:09:22;1.10;;;1.00;;
12296;SDS011;6211;49.124;9.152;2022-08-05T12:11:50;1.83;;;1.00;;
12296;SDS011;6211;49.124;9.152;2022-08-05T12:14:18;1.15;;;1.10;;
12296;SDS011;6211;49.124;9.152;2022-08-05T12:16:45;1.17;;;1.08;;
12296;SDS011;6211;49.124;9.152;2022-08-05T12:19:13;0.90;;;0.90;;
12296;SDS011;6211;49.124;9.152;2022-08-05T12:21:42;3.03;;;1.20;;
12296;SDS011;6211;49.124;9.152;2022-08-05T12:24:09;0.98;;;0.98;;
12296;SDS011;6211;49.124;9.152;2022-08-05T12:26:40;1.40;;;1.30;;
12296;SDS011;6211;49.124;9.152;2022-08-05T12:29:09;1.33;;;1.23;;
12296;SDS011;6211;49.124;9.152;2022-08-05T12:31:37;1.05;;;0.95;;
12296;SDS011;6211;49.124;9.152;2022-08-05T12:34:04;1.25;;;1.13;;
12296;SDS011;6211;49.124;9.152;2022-08-05T12:36:32;1.40;;;0.95;;
12296;SDS011;6211;49.124;9.152;2022-08-05T12:38:59;2.60;;;1.10;;
12296;SDS011;6211;49.124;9.152;2022-08-05T12:41:29;0.90;;;0.90;;
12296;SDS011;6211;49.124;9.152;2022-08-05T12:43:59;2.97;;;1.42;;
12296;SDS011;6211;49.124;9.152;2022-08-05T12:46:27;1.25;;;1.08;;
12296;SDS011;6211;49.124;9.152;2022-08-05T12:48:55;1.10;;;1.10;;
12296;SDS011;6211;49.124;9.152;2022-08-05T12:51:22;1.00;;;0.90;;
12296;SDS011;6211;49.124;9.152;2022-08-05T12:53:51;1.95;;;1.10;;
12296;SDS011;6211;49.124;9.152;2022-08-05T12:56:23;1.63;;;1.02;;
12296;SDS011;6211;49.124;9.152;2022-08-05T12:59:10;1.13;;;1.10;;
12296;SDS011;6211;49.124;9.152;2022-08-05T13:01:38;1.27;;;1.08;;
12296;SDS011;6211;49.124;9.152;2022-08-05T13:04:05;2.25;;;1.35;;
12296;SDS011;6211;49.124;9.152;2022-08-05T13:06:32;1.30;;;1.20;;
12296;SDS011;6211;49.124;9.152;2022-08-05T13:09:05;1.15;;;1.00;;
12296;SDS011;6211;49.124;9.152;2022-08-05T13:11:32;1.58;;;1.30;;
12296;SDS011;6211;49.124;9.152;2022-08-05T13:14:08;1.17;;;1.17;;
12296;SDS011;6211;49.124;9.152;2022-08-05T13:16:44;1.00;;;1.00;;
12296;SDS011;6211;49.124;9.152;2022-08-05T13:19:11;0.88;;;0.88;;
12296;SDS011;6211;49.124;9.152;2022-08-05T13:21:38;1.30;;;1.20;;
12296;SDS011;6211;49.124;9.152;2022-08-05T13:24:06;1.30;;;1.20;;
12296;SDS011;6211;49.124;9.152;2022-08-05T13:26:33;1.38;;;1.10;;
12296;SDS011;6211;49.124;9.152;2022-08-05T13:29:00;1.67;;;1.20;;
12296;SDS011;6211;49.124;9.152;2022-08-05T13:31:27;1.27;;;1.17;;
12296;SDS011;6211;49.124;9.152;2022-08-05T13:33:55;1.58;;;1.30;;
12296;SDS011;6211;49.124;9.152;2022-08-05T13:36:23;1.50;;;1.05;;
12296;SDS011;6211;49.124;9.152;2022-08-05T13:38:50;1.40;;;1.30;;
12296;SDS011;6211;49.124;9.152;2022-08-05T13:41:17;0.90;;;0.90;;
12296;SDS011;6211;49.124;9.152;2022-08-05T13:43:44;0.98;;;0.98;;
12296;SDS011;6211;49.124;9.152;2022-08-05T13:46:11;1.88;;;1.05;;
12296;SDS011;6211;49.124;9.152;2022-08-05T13:48:38;1.23;;;1.17;;
12296;SDS011;6211;49.124;9.152;2022-08-05T13:51:07;1.20;;;1.10;;
12296;SDS011;6211;49.124;9.152;2022-08-05T13:53:34;1.38;;;1.27;;
12296;SDS011;6211;49.124;9.152;2022-08-05T13:56:02;1.50;;;1.40;;
12296;SDS011;6211;49.124;9.152;2022-08-05T13:58:29;1.52;;;1.30;;
12296;SDS011;6211;49.124;9.152;2022-08-05T14:00:56;1.65;;;1.55;;
12296;SDS011;6211;49.124;9.152;2022-08-05T14:03:23;1.60;;;1.50;;
12296;SDS011;6211;49.124;9.152;2022-08-05T14:05:51;5.20;;;1.60;;
12296;SDS011;6211;49.124;9.152;2022-08-05T14:08:19;1.70;;;1.60;;
12296;SDS011;6211;49.124;9.152;2022-08-05T14:10:46;1.98;;;1.27;;
12296;SDS011;6211;49.124;9.152;2022-08-05T14:13:13;2.20;;;2.00;;
12296;SDS011;6211;49.124;9.152;2022-08-05T14:15:40;3.38;;;1.52;;
12296;SDS011;6211;49.124;9.152;2022-08-05T14:18:07;1.65;;;1.52;;
12296;SDS011;6211;49.124;9.152;2022-08-05T14:20:34;1.90;;;1.52;;
12296;SDS011;6211;49.124;9.152;2022-08-05T14:23:01;1.55;;;1.45;;
12296;SDS011;6211;49.124;9.152;2022-08-05T14:25:30;1.58;;;1.48;;
12296;SDS011;6211;49.124;9.152;2022-08-05T14:27:57;2.15;;;1.48;;
12296;SDS011;6211;49.124;9.152;2022-08-05T14:30:24;2.35;;;1.60;;
12296;SDS011;6211;49.124;9.152;2022-08-05T14:32:52;2.55;;;1.77;;
12296;SDS011;6211;49.124;9.152;2022-08-05T14:35:19;2.22;;;1.50;;
12296;SDS011;6211;49.124;9.152;2022-08-05T14:37:46;1.52;;;1.35;;
12296;SDS011;6211;49.124;9.152;2022-08-05T14:40:13;1.70;;;1.55;;
12296;SDS011;6211;49.124;9.152;2022-08-05T14:42:42;1.85;;;1.52;;
12296;SDS011;6211;49.124;9.152;2022-08-05T14:45:09;1.60;;;1.50;;
12296;SDS011;6211;49.124;9.152;2022-08-05T14:47:36;2.10;;;1.90;;
12296;SDS011;6211;49.124;9.152;2022-08-05T14:50:03;1.80;;;1.70;;
12296;SDS011;6211;49.124;9.152;2022-08-05T14:52:30;2.03;;;1.38;;
12296;SDS011;6211;49.124;9.152;2022-08-05T14:54:57;2.78;;;1.30;;
12296;SDS011;6211;49.124;9.152;2022-08-05T14:57:25;1.70;;;1.60;;
12296;SDS011;6211;49.124;9.152;2022-08-05T14:59:53;1.58;;;1.48;;
12296;SDS011;6211;49.124;9.152;2022-08-05T15:02:20;1.50;;;1.40;;
12296;SDS011;6211;49.124;9.152;2022-08-05T15:04:47;1.63;;;1.52;;
12296;SDS011;6211;49.124;9.152;2022-08-05T15:07:14;1.33;;;1.23;;
12296;SDS011;6211;49.124;9.152;2022-08-05T15:09:42;1.58;;;1.48;;
12296;SDS011;6211;49.124;9.152;2022-08-05T15:12:09;1.70;;;1.55;;